sensor_id;sensor_type;location;lat;lon;timestamp;pressure;altitude;pressure_sealevel;temperature
15680;BMP180;15488;48.114;11.532;2022-09-01T00:01:45;95615.00;;;23.00
15680;BMP180;15488;48.114;11.532;2022-09-01T00:04:15;95616.00;;;23.00
15680;BMP180;15488;48.114;11.532;2022-09-01T00:06:46;95616.00;;;23.00
15680;BMP180;15488;48.114;11.532;2022-09-01T00:09:16;95614.00;;;23.00
15680;BMP180;15488;48.114;11.532;2022-09-01T00:11:47;95617.00;;;23.00
15680;BMP180;15488;48.114;11.532;2022-09-01T00:14:15;95612.00;;;23.00
15680;BMP180;15488;48.114;11.532;2022-09-01T00:16:42;95620.00;;;23.00
15680;BMP180;15488;48.114;11.532;2022-09-01T00:19:10;95619.00;;;23.00
15680;BMP180;15488;48.114;11.532;2022-09-01T00:21:40;95619.00;;;22.90
15680;BMP180;15488;48.114;11.532;2022-09-01T00:24:11;95615.00;;;22.90
15680;BMP180;15488;48.114;11.532;2022-09-01T00:26:38;95619.00;;;22.90
15680;BMP180;15488;48.114;11.532;2022-09-01T00:29:06;95616.00;;;22.90
15680;BMP180;15488;48.114;11.532;2022-09-01T00:31:34;95615.00;;;22.90
15680;BMP180;15488;48.114;11.532;2022-09-01T00:34:02;95615.00;;;22.90
15680;BMP180;15488;48.114;11.532;2022-09-01T00:36:30;95611.00;;;22.90
15680;BMP180;15488;48.114;11.532;2022-09-01T00:38:57;95611.00;;;22.90
15680;BMP180;15488;48.114;11.532;2022-09-01T00:41:30;95609.00;;;22.90
15680;BMP180;15488;48.114;11.532;2022-09-01T00:44:00;95607.00;;;22.90
15680;BMP180;15488;48.114;11.532;2022-09-01T00:46:33;95609.00;;;22.90
15680;BMP180;15488;48.114;11.532;2022-09-01T00:49:03;95603.00;;;22.80
15680;BMP180;15488;48.114;11.532;2022-09-01T00:51:34;95604.00;;;22.80
15680;BMP180;15488;48.114;11.532;2022-09-01T00:54:05;95605.00;;;22.80
15680;BMP180;15488;48.114;11.532;2022-09-01T00:56:37;95600.00;;;22.80
15680;BMP180;15488;48.114;11.532;2022-09-01T00:59:06;95597.00;;;22.80
15680;BMP180;15488;48.114;11.532;2022-09-01T01:01:34;95599.00;;;22.80
15680;BMP180;15488;48.114;11.532;2022-09-01T01:04:02;95603.00;;;22.80
15680;BMP180;15488;48.114;11.532;2022-09-01T01:06:30;95607.00;;;22.80
15680;BMP180;15488;48.114;11.532;2022-09-01T01:08:59;95603.00;;;22.80
15680;BMP180;15488;48.114;11.532;2022-09-01T01:11:30;95603.00;;;22.80
15680;BMP180;15488;48.114;11.532;2022-09-01T01:14:01;95594.00;;;22.80
15680;BMP180;15488;48.114;11.532;2022-09-01T01:16:35;95601.00;;;22.80
15680;BMP180;15488;48.114;11.532;2022-09-01T01:19:03;95592.00;;;22.80
15680;BMP180;15488;48.114;11.532;2022-09-01T01:21:38;95590.00;;;22.70
15680;BMP180;15488;48.114;11.532;2022-09-01T01:24:28;95590.00;;;22.70
15680;BMP180;15488;48.114;11.532;2022-09-01T01:26:56;95593.00;;;22.70
15680;BMP180;15488;48.114;11.532;2022-09-01T01:29:26;95593.00;;;22.70
15680;BMP180;15488;48.114;11.532;2022-09-01T01:31:54;95596.00;;;22.70
15680;BMP180;15488;48.114;11.532;2022-09-01T01:34:22;95591.00;;;22.70
15680;BMP180;15488;48.114;11.532;2022-09-01T01:36:50;95594.00;;;22.70
15680;BMP180;15488;48.114;11.532;2022-09-01T01:39:20;95589.00;;;22.70
15680;BMP180;15488;48.114;11.532;2022-09-01T01:41:53;95589.00;;;22.70
15680;BMP180;15488;48.114;11.532;2022-09-01T01:44:23;95591.00;;;22.70
15680;BMP180;15488;48.114;11.532;2022-09-01T01:46:54;95586.00;;;22.70
15680;BMP180;15488;48.114;11.532;2022-09-01T01:49:26;95589.00;;;22.70
15680;BMP180;15488;48.114;11.532;2022-09-01T01:51:56;95584.00;;;22.70
15680;BMP180;15488;48.114;11.532;2022-09-01T01:54:24;95584.00;;;22.70
15680;BMP180;15488;48.114;11.532;2022-09-01T01:56:59;95578.00;;;22.70
15680;BMP180;15488;48.114;11.532;2022-09-01T01:59:27;95583.00;;;22.70
15680;BMP180;15488;48.114;11.532;2022-09-01T02:01:55;95585.00;;;22.70
15680;BMP180;15488;48.114;11.532;2022-09-01T02:04:23;95582.00;;;22.70
15680;BMP180;15488;48.114;11.532;2022-09-01T02:06:50;95587.00;;;22.80
15680;BMP180;15488;48.114;11.532;2022-09-01T02:09:19;95580.00;;;22.70
15680;BMP180;15488;48.114;11.532;2022-09-01T02:11:48;95581.00;;;22.70
15680;BMP180;15488;48.114;11.532;2022-09-01T02:14:20;95580.00;;;22.70
15680;BMP180;15488;48.114;11.532;2022-09-01T02:16:48;95583.00;;;22.70
15680;BMP180;15488;48.114;11.532;2022-09-01T02:19:16;95585.00;;;22.70
15680;BMP180;15488;48.114;11.532;2022-09-01T02:21:46;95584.00;;;22.70
15680;BMP180;15488;48.114;11.532;2022-09-01T02:24:14;95583.00;;;22.70
15680;BMP180;15488;48.114;11.532;2022-09-01T02:26:43;95579.00;;;22.70
15680;BMP180;15488;48.114;11.532;2022-09-01T02:29:18;95582.00;;;22.70
15680;BMP180;15488;48.114;11.532;2022-09-01T02:31:49;95578.00;;;22.70
15680;BMP180;15488;48.114;11.532;2022-09-01T02:34:18;95583.00;;;22.70
15680;BMP180;15488;48.114;11.532;2022-09-01T02:36:51;95584.00;;;22.70
15680;BMP180;15488;48.114;11.532;2022-09-01T02:39:20;95583.00;;;22.70
15680;BMP180;15488;48.114;11.532;2022-09-01T02:41:49;95585.00;;;22.60
15680;BMP180;15488;48.114;11.532;2022-09-01T02:44:16;95583.00;;;22.60
15680;BMP180;15488;48.114;11.532;2022-09-01T02:46:49;95586.00;;;22.60
15680;BMP180;15488;48.114;11.532;2022-09-01T02:49:19;95586.00;;;22.60
15680;BMP180;15488;48.114;11.532;2022-09-01T02:51:51;95585.00;;;22.60
15680;BMP180;15488;48.114;11.532;2022-09-01T02:54:20;95578.00;;;22.50
15680;BMP180;15488;48.114;11.532;2022-09-01T02:56:50;95584.00;;;22.50
15680;BMP180;15488;48.114;11.532;2022-09-01T02:59:21;95584.00;;;22.50
15680;BMP180;15488;48.114;11.532;2022-09-01T03:01:51;95586.00;;;22.30
15680;BMP180;15488;48.114;11.532;2022-09-01T03:04:20;95587.00;;;22.40
15680;BMP180;15488;48.114;11.532;2022-09-01T03:06:49;95593.00;;;22.40
15680;BMP180;15488;48.114;11.532;2022-09-01T03:09:20;95582.00;;;22.40
15680;BMP180;15488;48.114;11.532;2022-09-01T03:11:49;95583.00;;;22.30
15680;BMP180;15488;48.114;11.532;2022-09-01T03:14:18;95579.00;;;22.30
15680;BMP180;15488;48.114;11.532;2022-09-01T03:16:45;95571.00;;;22.30
15680;BMP180;15488;48.114;11.532;2022-09-01T03:19:14;95576.00;;;22.20
15680;BMP180;15488;48.114;11.532;2022-09-01T03:21:45;95572.00;;;22.20
15680;BMP180;15488;48.114;11.532;2022-09-01T03:24:15;95573.00;;;22.20
15680;BMP180;15488;48.114;11.532;2022-09-01T03:26:44;95572.00;;;22.20
15680;BMP180;15488;48.114;11.532;2022-09-01T03:29:12;95571.00;;;22.00
15680;BMP180;15488;48.114;11.532;2022-09-01T03:31:40;95575.00;;;22.10
15680;BMP180;15488;48.114;11.532;2022-09-01T03:34:09;95571.00;;;22.10
15680;BMP180;15488;48.114;11.532;2022-09-01T03:36:39;95561.00;;;22.10
15680;BMP180;15488;48.114;11.532;2022-09-01T03:39:15;95564.00;;;22.10
15680;BMP180;15488;48.114;11.532;2022-09-01T03:41:43;95565.00;;;22.10
15680;BMP180;15488;48.114;11.532;2022-09-01T03:44:13;95569.00;;;22.00
15680;BMP180;15488;48.114;11.532;2022-09-01T03:46:41;95563.00;;;22.10
15680;BMP180;15488;48.114;11.532;2022-09-01T03:49:09;95557.00;;;22.00
15680;BMP180;15488;48.114;11.532;2022-09-01T03:51:51;95556.00;;;22.00
15680;BMP180;15488;48.114;11.532;2022-09-01T03:54:19;95561.00;;;22.00
15680;BMP180;15488;48.114;11.532;2022-09-01T03:56:49;95553.00;;;22.00
15680;BMP180;15488;48.114;11.532;2022-09-01T03:59:17;95556.00;;;22.00
15680;BMP180;15488;48.114;11.532;2022-09-01T04:01:45;95554.00;;;22.00
15680;BMP180;15488;48.114;11.532;2022-09-01T04:04:13;95542.00;;;22.00
15680;BMP180;15488;48.114;11.532;2022-09-01T04:06:41;95540.00;;;22.00
15680;BMP180;15488;48.114;11.532;2022-09-01T04:09:11;95545.00;;;21.90
15680;BMP180;15488;48.114;11.532;2022-09-01T04:11:39;95544.00;;;22.00
15680;BMP180;15488;48.114;11.532;2022-09-01T04:14:08;95542.00;;;22.00
15680;BMP180;15488;48.114;11.532;2022-09-01T04:16:36;95541.00;;;22.00
15680;BMP180;15488;48.114;11.532;2022-09-01T04:19:22;95543.00;;;22.00
15680;BMP180;15488;48.114;11.532;2022-09-01T04:21:53;95541.00;;;22.00
15680;BMP180;15488;48.114;11.532;2022-09-01T04:24:24;95542.00;;;22.00
15680;BMP180;15488;48.114;11.532;2022-09-01T04:26:54;95549.00;;;22.00
15680;BMP180;15488;48.114;11.532;2022-09-01T04:29:23;95546.00;;;22.00
15680;BMP180;15488;48.114;11.532;2022-09-01T04:31:52;95552.00;;;22.00
15680;BMP180;15488;48.114;11.532;2022-09-01T04:34:20;95552.00;;;22.00
15680;BMP180;15488;48.114;11.532;2022-09-01T04:36:50;95549.00;;;22.00
15680;BMP180;15488;48.114;11.532;2022-09-01T04:39:23;95549.00;;;22.00
15680;BMP180;15488;48.114;11.532;2022-09-01T04:41:50;95550.00;;;22.00
15680;BMP180;15488;48.114;11.532;2022-09-01T04:44:18;95547.00;;;22.00
15680;BMP180;15488;48.114;11.532;2022-09-01T04:46:46;95554.00;;;22.00
15680;BMP180;15488;48.114;11.532;2022-09-01T04:49:17;95547.00;;;21.90
15680;BMP180;15488;48.114;11.532;2022-09-01T04:51:49;95553.00;;;22.00
15680;BMP180;15488;48.114;11.532;2022-09-01T04:54:17;95552.00;;;22.00
15680;BMP180;15488;48.114;11.532;2022-09-01T04:56:49;95554.00;;;22.00
15680;BMP180;15488;48.114;11.532;2022-09-01T04:59:21;95553.00;;;22.00
15680;BMP180;15488;48.114;11.532;2022-09-01T05:01:49;95557.00;;;22.00
15680;BMP180;15488;48.114;11.532;2022-09-01T05:04:21;95553.00;;;22.00
15680;BMP180;15488;48.114;11.532;2022-09-01T05:06:51;95551.00;;;22.00
15680;BMP180;15488;48.114;11.532;2022-09-01T05:09:27;95555.00;;;22.00
15680;BMP180;15488;48.114;11.532;2022-09-01T05:11:57;95552.00;;;22.00
15680;BMP180;15488;48.114;11.532;2022-09-01T05:14:26;95558.00;;;22.00
15680;BMP180;15488;48.114;11.532;2022-09-01T05:16:56;95558.00;;;22.00
15680;BMP180;15488;48.114;11.532;2022-09-01T05:19:25;95564.00;;;22.00
15680;BMP180;15488;48.114;11.532;2022-09-01T05:21:54;95565.00;;;22.00
15680;BMP180;15488;48.114;11.532;2022-09-01T05:24:24;95560.00;;;22.00
15680;BMP180;15488;48.114;11.532;2022-09-01T05:26:58;95559.00;;;22.00
15680;BMP180;15488;48.114;11.532;2022-09-01T05:29:26;95557.00;;;22.00
15680;BMP180;15488;48.114;11.532;2022-09-01T05:31:55;95559.00;;;22.00
15680;BMP180;15488;48.114;11.532;2022-09-01T05:34:24;95558.00;;;22.10
15680;BMP180;15488;48.114;11.532;2022-09-01T05:36:55;95553.00;;;22.10
15680;BMP180;15488;48.114;11.532;2022-09-01T05:39:23;95549.00;;;22.10
15680;BMP180;15488;48.114;11.532;2022-09-01T05:41:51;95552.00;;;22.10
15680;BMP180;15488;48.114;11.532;2022-09-01T05:44:21;95554.00;;;22.10
15680;BMP180;15488;48.114;11.532;2022-09-01T05:46:49;95563.00;;;22.10
15680;BMP180;15488;48.114;11.532;2022-09-01T05:49:18;95561.00;;;22.10
15680;BMP180;15488;48.114;11.532;2022-09-01T05:51:47;95557.00;;;22.10
15680;BMP180;15488;48.114;11.532;2022-09-01T05:54:18;95557.00;;;22.10
15680;BMP180;15488;48.114;11.532;2022-09-01T05:56:46;95556.00;;;22.10
15680;BMP180;15488;48.114;11.532;2022-09-01T05:59:14;95565.00;;;22.10
15680;BMP180;15488;48.114;11.532;2022-09-01T06:01:43;95559.00;;;22.20
15680;BMP180;15488;48.114;11.532;2022-09-01T06:04:13;95567.00;;;22.20
15680;BMP180;15488;48.114;11.532;2022-09-01T06:06:43;95559.00;;;22.30
15680;BMP180;15488;48.114;11.532;2022-09-01T06:09:12;95563.00;;;22.30
15680;BMP180;15488;48.114;11.532;2022-09-01T06:11:43;95564.00;;;22.40
15680;BMP180;15488;48.114;11.532;2022-09-01T06:14:12;95562.00;;;22.40
15680;BMP180;15488;48.114;11.532;2022-09-01T06:16:42;95564.00;;;22.50
15680;BMP180;15488;48.114;11.532;2022-09-01T06:19:10;95563.00;;;22.60
15680;BMP180;15488;48.114;11.532;2022-09-01T06:21:39;95560.00;;;22.60
15680;BMP180;15488;48.114;11.532;2022-09-01T06:24:07;95564.00;;;22.70
15680;BMP180;15488;48.114;11.532;2022-09-01T06:26:36;95563.00;;;22.70
15680;BMP180;15488;48.114;11.532;2022-09-01T06:29:07;95567.00;;;22.70
15680;BMP180;15488;48.114;11.532;2022-09-01T06:31:42;95568.00;;;22.80
15680;BMP180;15488;48.114;11.532;2022-09-01T06:34:17;95573.00;;;22.80
15680;BMP180;15488;48.114;11.532;2022-09-01T06:36:46;95564.00;;;22.80
15680;BMP180;15488;48.114;11.532;2022-09-01T06:39:15;95578.00;;;22.90
15680;BMP180;15488;48.114;11.532;2022-09-01T06:41:45;95564.00;;;22.90
15680;BMP180;15488;48.114;11.532;2022-09-01T06:44:18;95564.00;;;23.00
15680;BMP180;15488;48.114;11.532;2022-09-01T06:46:48;95567.00;;;23.00
15680;BMP180;15488;48.114;11.532;2022-09-01T06:49:16;95573.00;;;23.00
15680;BMP180;15488;48.114;11.532;2022-09-01T06:51:46;95576.00;;;23.10
15680;BMP180;15488;48.114;11.532;2022-09-01T06:54:14;95576.00;;;23.10
15680;BMP180;15488;48.114;11.532;2022-09-01T06:56:42;95573.00;;;23.10
15680;BMP180;15488;48.114;11.532;2022-09-01T06:59:09;95581.00;;;23.20
15680;BMP180;15488;48.114;11.532;2022-09-01T07:01:38;95581.00;;;23.20
15680;BMP180;15488;48.114;11.532;2022-09-01T07:04:07;95587.00;;;23.20
15680;BMP180;15488;48.114;11.532;2022-09-01T07:06:35;95591.00;;;23.30
15680;BMP180;15488;48.114;11.532;2022-09-01T07:09:02;95590.00;;;23.30
15680;BMP180;15488;48.114;11.532;2022-09-01T07:11:32;95597.00;;;23.30
15680;BMP180;15488;48.114;11.532;2022-09-01T07:14:03;95602.00;;;23.30
15680;BMP180;15488;48.114;11.532;2022-09-01T07:16:32;95595.00;;;23.30
15680;BMP180;15488;48.114;11.532;2022-09-01T07:19:08;95599.00;;;23.40
15680;BMP180;15488;48.114;11.532;2022-09-01T07:21:41;95605.00;;;23.40
15680;BMP180;15488;48.114;11.532;2022-09-01T07:24:09;95605.00;;;23.40
15680;BMP180;15488;48.114;11.532;2022-09-01T07:26:38;95606.00;;;23.40
15680;BMP180;15488;48.114;11.532;2022-09-01T07:29:07;95602.00;;;23.40
15680;BMP180;15488;48.114;11.532;2022-09-01T07:31:37;95607.00;;;23.50
15680;BMP180;15488;48.114;11.532;2022-09-01T07:34:09;95608.00;;;23.50
15680;BMP180;15488;48.114;11.532;2022-09-01T07:36:38;95599.00;;;23.60
15680;BMP180;15488;48.114;11.532;2022-09-01T07:39:06;95609.00;;;23.60
15680;BMP180;15488;48.114;11.532;2022-09-01T07:41:34;95602.00;;;23.70
15680;BMP180;15488;48.114;11.532;2022-09-01T07:44:02;95601.00;;;23.70
15680;BMP180;15488;48.114;11.532;2022-09-01T07:46:31;95613.00;;;23.70
15680;BMP180;15488;48.114;11.532;2022-09-01T07:48:59;95608.00;;;23.70
15680;BMP180;15488;48.114;11.532;2022-09-01T07:51:29;95611.00;;;23.80
15680;BMP180;15488;48.114;11.532;2022-09-01T07:53:59;95614.00;;;23.80
15680;BMP180;15488;48.114;11.532;2022-09-01T07:56:27;95614.00;;;23.70
15680;BMP180;15488;48.114;11.532;2022-09-01T07:58:56;95616.00;;;23.70
15680;BMP180;15488;48.114;11.532;2022-09-01T08:01:26;95626.00;;;23.70
15680;BMP180;15488;48.114;11.532;2022-09-01T08:03:56;95616.00;;;23.80
15680;BMP180;15488;48.114;11.532;2022-09-01T08:06:25;95629.00;;;23.80
15680;BMP180;15488;48.114;11.532;2022-09-01T08:08:56;95622.00;;;23.90
15680;BMP180;15488;48.114;11.532;2022-09-01T08:11:26;95626.00;;;23.90
15680;BMP180;15488;48.114;11.532;2022-09-01T08:13:55;95620.00;;;23.90
15680;BMP180;15488;48.114;11.532;2022-09-01T08:17:01;95619.00;;;24.00
15680;BMP180;15488;48.114;11.532;2022-09-01T08:19:29;95632.00;;;24.00
15680;BMP180;15488;48.114;11.532;2022-09-01T08:21:56;95635.00;;;24.10
15680;BMP180;15488;48.114;11.532;2022-09-01T08:24:25;95633.00;;;24.10
15680;BMP180;15488;48.114;11.532;2022-09-01T08:26:52;95630.00;;;24.20
15680;BMP180;15488;48.114;11.532;2022-09-01T08:29:20;95634.00;;;24.20
15680;BMP180;15488;48.114;11.532;2022-09-01T08:31:47;95634.00;;;24.30
15680;BMP180;15488;48.114;11.532;2022-09-01T08:34:15;95636.00;;;24.30
15680;BMP180;15488;48.114;11.532;2022-09-01T08:36:42;95643.00;;;24.40
15680;BMP180;15488;48.114;11.532;2022-09-01T08:39:10;95639.00;;;24.50
15680;BMP180;15488;48.114;11.532;2022-09-01T08:41:42;95643.00;;;24.50
15680;BMP180;15488;48.114;11.532;2022-09-01T08:44:18;95639.00;;;24.50
15680;BMP180;15488;48.114;11.532;2022-09-01T08:46:53;95633.00;;;24.60
15680;BMP180;15488;48.114;11.532;2022-09-01T08:49:24;95634.00;;;24.70
15680;BMP180;15488;48.114;11.532;2022-09-01T08:51:55;95643.00;;;24.80
15680;BMP180;15488;48.114;11.532;2022-09-01T08:54:28;95635.00;;;24.90
15680;BMP180;15488;48.114;11.532;2022-09-01T08:57:06;95636.00;;;24.90
15680;BMP180;15488;48.114;11.532;2022-09-01T08:59:34;95646.00;;;25.00
15680;BMP180;15488;48.114;11.532;2022-09-01T09:02:20;95642.00;;;25.10
15680;BMP180;15488;48.114;11.532;2022-09-01T09:05:01;95644.00;;;25.20
15680;BMP180;15488;48.114;11.532;2022-09-01T09:07:42;95644.00;;;25.20
15680;BMP180;15488;48.114;11.532;2022-09-01T09:10:17;95644.00;;;25.30
15680;BMP180;15488;48.114;11.532;2022-09-01T09:12:56;95642.00;;;25.40
15680;BMP180;15488;48.114;11.532;2022-09-01T09:15:32;95646.00;;;25.50
15680;BMP180;15488;48.114;11.532;2022-09-01T09:18:12;95642.00;;;25.60
15680;BMP180;15488;48.114;11.532;2022-09-01T09:20:43;95644.00;;;25.70
15680;BMP180;15488;48.114;11.532;2022-09-01T09:23:23;95642.00;;;25.70
15680;BMP180;15488;48.114;11.532;2022-09-01T09:25:50;95638.00;;;25.90
15680;BMP180;15488;48.114;11.532;2022-09-01T09:28:19;95642.00;;;25.90
15680;BMP180;15488;48.114;11.532;2022-09-01T09:30:46;95637.00;;;26.00
15680;BMP180;15488;48.114;11.532;2022-09-01T09:33:36;95642.00;;;26.10
15680;BMP180;15488;48.114;11.532;2022-09-01T09:36:17;95644.00;;;26.10
15680;BMP180;15488;48.114;11.532;2022-09-01T09:38:45;95632.00;;;26.20
15680;BMP180;15488;48.114;11.532;2022-09-01T09:41:17;95642.00;;;26.30
15680;BMP180;15488;48.114;11.532;2022-09-01T09:43:53;95640.00;;;26.30
15680;BMP180;15488;48.114;11.532;2022-09-01T09:46:26;95638.00;;;26.40
15680;BMP180;15488;48.114;11.532;2022-09-01T09:49:09;95632.00;;;26.50
15680;BMP180;15488;48.114;11.532;2022-09-01T09:51:37;95635.00;;;26.60
15680;BMP180;15488;48.114;11.532;2022-09-01T09:54:20;95633.00;;;26.60
15680;BMP180;15488;48.114;11.532;2022-09-01T09:57:01;95635.00;;;26.70
15680;BMP180;15488;48.114;11.532;2022-09-01T09:59:32;95640.00;;;26.70
15680;BMP180;15488;48.114;11.532;2022-09-01T10:02:16;95636.00;;;26.80
15680;BMP180;15488;48.114;11.532;2022-09-01T10:04:48;95631.00;;;26.80
15680;BMP180;15488;48.114;11.532;2022-09-01T10:07:24;95629.00;;;26.80
15680;BMP180;15488;48.114;11.532;2022-09-01T10:09:53;95634.00;;;26.80
15680;BMP180;15488;48.114;11.532;2022-09-01T10:12:21;95627.00;;;26.90
15680;BMP180;15488;48.114;11.532;2022-09-01T10:14:53;95622.00;;;26.90
15680;BMP180;15488;48.114;11.532;2022-09-01T10:17:27;95622.00;;;26.90
15680;BMP180;15488;48.114;11.532;2022-09-01T10:19:57;95618.00;;;27.00
15680;BMP180;15488;48.114;11.532;2022-09-01T10:22:32;95610.00;;;27.00
15680;BMP180;15488;48.114;11.532;2022-09-01T10:25:01;95623.00;;;27.10
15680;BMP180;15488;48.114;11.532;2022-09-01T10:27:31;95621.00;;;27.10
15680;BMP180;15488;48.114;11.532;2022-09-01T10:30:05;95614.00;;;27.10
15680;BMP180;15488;48.114;11.532;2022-09-01T10:32:38;95618.00;;;27.10
15680;BMP180;15488;48.114;11.532;2022-09-01T10:35:09;95616.00;;;27.20
15680;BMP180;15488;48.114;11.532;2022-09-01T10:37:40;95619.00;;;27.30
15680;BMP180;15488;48.114;11.532;2022-09-01T10:40:17;95618.00;;;27.30
15680;BMP180;15488;48.114;11.532;2022-09-01T10:42:48;95611.00;;;27.40
15680;BMP180;15488;48.114;11.532;2022-09-01T10:45:30;95617.00;;;27.50
15680;BMP180;15488;48.114;11.532;2022-09-01T10:48:23;95619.00;;;27.50
15680;BMP180;15488;48.114;11.532;2022-09-01T10:50:57;95614.00;;;27.50
15680;BMP180;15488;48.114;11.532;2022-09-01T10:53:43;95616.00;;;27.50
15680;BMP180;15488;48.114;11.532;2022-09-01T10:56:14;95612.00;;;27.50
15680;BMP180;15488;48.114;11.532;2022-09-01T10:58:49;95616.00;;;27.50
15680;BMP180;15488;48.114;11.532;2022-09-01T11:02:02;95616.00;;;27.50
15680;BMP180;15488;48.114;11.532;2022-09-01T11:07:34;95608.00;;;27.60
15680;BMP180;15488;48.114;11.532;2022-09-01T11:10:27;95617.00;;;27.60
15680;BMP180;15488;48.114;11.532;2022-09-01T11:16:29;95608.00;;;27.70
15680;BMP180;15488;48.114;11.532;2022-09-01T11:19:23;95614.00;;;27.70
15680;BMP180;15488;48.114;11.532;2022-09-01T11:25:10;95603.00;;;27.90
15680;BMP180;15488;48.114;11.532;2022-09-01T11:28:04;95604.00;;;28.00
15680;BMP180;15488;48.114;11.532;2022-09-01T11:30:44;95599.00;;;28.10
15680;BMP180;15488;48.114;11.532;2022-09-01T11:33:42;95601.00;;;28.20
15680;BMP180;15488;48.114;11.532;2022-09-01T11:36:18;95604.00;;;28.30
15680;BMP180;15488;48.114;11.532;2022-09-01T11:38:49;95602.00;;;28.40
15680;BMP180;15488;48.114;11.532;2022-09-01T11:41:28;95589.00;;;28.50
15680;BMP180;15488;48.114;11.532;2022-09-01T11:44:00;95594.00;;;28.60
15680;BMP180;15488;48.114;11.532;2022-09-01T11:46:31;95598.00;;;28.60
15680;BMP180;15488;48.114;11.532;2022-09-01T11:49:02;95591.00;;;28.70
15680;BMP180;15488;48.114;11.532;2022-09-01T11:51:41;95590.00;;;28.80
15680;BMP180;15488;48.114;11.532;2022-09-01T11:54:11;95596.00;;;29.00
15680;BMP180;15488;48.114;11.532;2022-09-01T11:56:40;95593.00;;;29.10
15680;BMP180;15488;48.114;11.532;2022-09-01T11:59:08;95593.00;;;29.20
15680;BMP180;15488;48.114;11.532;2022-09-01T12:01:37;95591.00;;;29.30
15680;BMP180;15488;48.114;11.532;2022-09-01T12:04:20;95586.00;;;29.40
15680;BMP180;15488;48.114;11.532;2022-09-01T12:06:53;95589.00;;;29.50
15680;BMP180;15488;48.114;11.532;2022-09-01T12:09:21;95590.00;;;29.60
15680;BMP180;15488;48.114;11.532;2022-09-01T12:11:58;95591.00;;;29.60
15680;BMP180;15488;48.114;11.532;2022-09-01T12:14:26;95590.00;;;29.70
15680;BMP180;15488;48.114;11.532;2022-09-01T12:16:58;95586.00;;;29.80
15680;BMP180;15488;48.114;11.532;2022-09-01T12:19:29;95579.00;;;29.90
15680;BMP180;15488;48.114;11.532;2022-09-01T12:21:59;95539.00;;;30.00
15680;BMP180;15488;48.114;11.532;2022-09-01T12:24:30;95587.00;;;30.10
15680;BMP180;15488;48.114;11.532;2022-09-01T12:27:00;95552.00;;;30.20
15680;BMP180;15488;48.114;11.532;2022-09-01T12:29:29;95587.00;;;30.40
15680;BMP180;15488;48.114;11.532;2022-09-01T12:31:59;95578.00;;;30.50
15680;BMP180;15488;48.114;11.532;2022-09-01T12:34:37;95580.00;;;30.70
15680;BMP180;15488;48.114;11.532;2022-09-01T12:37:08;95581.00;;;30.90
15680;BMP180;15488;48.114;11.532;2022-09-01T12:39:37;95581.00;;;30.90
15680;BMP180;15488;48.114;11.532;2022-09-01T12:42:26;95584.00;;;31.10
15680;BMP180;15488;48.114;11.532;2022-09-01T12:44:56;95585.00;;;31.20
15680;BMP180;15488;48.114;11.532;2022-09-01T12:47:44;95586.00;;;31.20
15680;BMP180;15488;48.114;11.532;2022-09-01T12:50:33;95577.00;;;31.20
15680;BMP180;15488;48.114;11.532;2022-09-01T12:53:02;95584.00;;;31.10
15680;BMP180;15488;48.114;11.532;2022-09-01T12:55:32;95584.00;;;31.10
15680;BMP180;15488;48.114;11.532;2022-09-01T12:58:02;95588.00;;;31.00
15680;BMP180;15488;48.114;11.532;2022-09-01T13:00:32;95586.00;;;31.00
15680;BMP180;15488;48.114;11.532;2022-09-01T13:03:11;95580.00;;;31.00
15680;BMP180;15488;48.114;11.532;2022-09-01T13:05:41;95589.00;;;31.10
15680;BMP180;15488;48.114;11.532;2022-09-01T13:08:11;95577.00;;;31.20
15680;BMP180;15488;48.114;11.532;2022-09-01T13:10:41;95576.00;;;31.30
15680;BMP180;15488;48.114;11.532;2022-09-01T13:13:12;95576.00;;;31.30
15680;BMP180;15488;48.114;11.532;2022-09-01T13:15:42;95580.00;;;31.40
15680;BMP180;15488;48.114;11.532;2022-09-01T13:18:10;95573.00;;;31.70
15680;BMP180;15488;48.114;11.532;2022-09-01T13:20:38;95579.00;;;32.50
15680;BMP180;15488;48.114;11.532;2022-09-01T13:23:07;95581.00;;;33.00
15680;BMP180;15488;48.114;11.532;2022-09-01T13:25:35;95581.00;;;34.00
15680;BMP180;15488;48.114;11.532;2022-09-01T13:28:03;95574.00;;;35.20
15680;BMP180;15488;48.114;11.532;2022-09-01T13:30:34;95575.00;;;36.30
15680;BMP180;15488;48.114;11.532;2022-09-01T13:33:02;95580.00;;;37.60
15680;BMP180;15488;48.114;11.532;2022-09-01T13:35:29;95576.00;;;38.70
15680;BMP180;15488;48.114;11.532;2022-09-01T13:37:57;95580.00;;;38.90
15680;BMP180;15488;48.114;11.532;2022-09-01T13:40:24;95549.00;;;39.00
15680;BMP180;15488;48.114;11.532;2022-09-01T13:42:53;95576.00;;;39.10
15680;BMP180;15488;48.114;11.532;2022-09-01T13:45:22;95580.00;;;39.40
15680;BMP180;15488;48.114;11.532;2022-09-01T13:47:52;95586.00;;;39.40
15680;BMP180;15488;48.114;11.532;2022-09-01T13:50:21;95575.00;;;39.70
15680;BMP180;15488;48.114;11.532;2022-09-01T13:52:51;95577.00;;;40.30
15680;BMP180;15488;48.114;11.532;2022-09-01T13:55:21;95573.00;;;40.80
15680;BMP180;15488;48.114;11.532;2022-09-01T13:57:49;95570.00;;;41.30
15680;BMP180;15488;48.114;11.532;2022-09-01T14:00:19;95567.00;;;42.20
15680;BMP180;15488;48.114;11.532;2022-09-01T14:02:52;95560.00;;;43.10
15680;BMP180;15488;48.114;11.532;2022-09-01T14:05:26;95565.00;;;44.00
15680;BMP180;15488;48.114;11.532;2022-09-01T14:07:54;95556.00;;;44.80
15680;BMP180;15488;48.114;11.532;2022-09-01T14:10:23;95563.00;;;45.50
15680;BMP180;15488;48.114;11.532;2022-09-01T14:12:51;95563.00;;;46.20
15680;BMP180;15488;48.114;11.532;2022-09-01T14:15:20;95557.00;;;46.80
15680;BMP180;15488;48.114;11.532;2022-09-01T14:17:50;95548.00;;;47.30
15680;BMP180;15488;48.114;11.532;2022-09-01T14:20:21;95555.00;;;47.80
15680;BMP180;15488;48.114;11.532;2022-09-01T14:22:50;95549.00;;;48.40
15680;BMP180;15488;48.114;11.532;2022-09-01T14:25:18;95554.00;;;48.80
15680;BMP180;15488;48.114;11.532;2022-09-01T14:27:47;95554.00;;;48.50
15680;BMP180;15488;48.114;11.532;2022-09-01T14:30:18;95545.00;;;48.40